Time;durP1;ratioP1;P1;durP2;ratioP2;P2;SDS_P1;SDS_P2;PMS_P1;PMS_P2;Temp;Humidity;BMP_temperature;BMP_pressure;BME280_temperature;BME280_humidity;BME280_pressure;Samples;Min_cycle;Max_cycle;Signal;HPM_P1;HPM_P2
2022/09/22 00:01:08;;;;;;;3.88;1.85;;;;;;;11.69;nan;-24143.56;5027545;28;20180;-67
2022/09/22 00:03:39;;;;;;;1.90;1.80;;;;;;;11.57;nan;-24140.03;5015268;28;20558;-67
2022/09/22 00:06:06;;;;;;;2.20;1.83;;;;;;;11.79;nan;-24146.38;5025898;28;20278;-67
2022/09/22 00:08:34;;;;;;;1.70;1.55;;;;;;;11.64;nan;-24142.16;5033128;28;20658;-69
2022/09/22 00:11:02;;;;;;;2.70;2.20;;;;;;;11.94;nan;-24150.47;5033874;28;20519;-67
2022/09/22 00:13:28;;;;;;;2.65;1.88;;;;;;;11.46;nan;-24137.09;5033050;28;20198;-67
2022/09/22 00:15:54;;;;;;;2.17;1.70;;;;;;;11.85;nan;-24147.94;5032867;28;20175;-69
2022/09/22 00:18:19;;;;;;;2.23;2.00;;;;;;;11.80;nan;-24146.53;5033116;28;20333;-69
2022/09/22 00:20:45;;;;;;;2.35;1.92;;;;;;;11.61;nan;-24141.16;5032343;28;20175;-68
2022/09/22 00:23:10;;;;;;;1.73;1.53;;;;;;;11.86;nan;-24148.22;5032545;28;20221;-68
2022/09/22 00:25:38;;;;;;;1.60;1.50;;;;;;;11.87;nan;-24148.63;5032433;28;20202;-68
2022/09/22 00:28:04;;;;;;;2.90;2.03;;;;;;;11.88;nan;-24148.91;5032753;28;20202;-67
2022/09/22 00:30:30;;;;;;;2.53;1.83;;;;;;;11.78;nan;-24145.97;5033089;28;20179;-69
2022/09/22 00:32:56;;;;;;;3.00;1.90;;;;;;;11.30;nan;-24132.56;5032955;28;20545;-68
2022/09/22 00:35:21;;;;;;;2.07;1.67;;;;;;;11.71;nan;-24143.97;5033031;28;20202;-71
2022/09/22 00:37:47;;;;;;;3.03;1.97;;;;;;;11.72;nan;-24144.41;5031210;28;20227;-67
2022/09/22 00:40:12;;;;;;;2.67;2.27;;;;;;;11.30;nan;-24132.72;5032178;28;20183;-68
2022/09/22 00:42:38;;;;;;;1.70;1.60;;;;;;;11.25;nan;-24131.31;5032530;28;20175;-68
2022/09/22 00:45:05;;;;;;;1.63;1.50;;;;;;;11.30;nan;-24132.72;5036920;28;20627;-69
2022/09/22 00:47:41;;;;;;;1.87;1.63;;;;;;;11.50;nan;-24138.22;5038259;28;20225;-67
2022/09/22 00:50:18;;;;;;;1.40;1.30;;;;;;;11.47;nan;-24137.34;5038425;28;20173;-69
2022/09/22 00:52:52;;;;;;;2.63;1.80;;;;;;;11.58;nan;-24140.31;5038668;28;20178;-68
2022/09/22 00:55:24;;;;;;;1.80;1.70;;;;;;;11.44;nan;-24136.50;5038308;28;20190;-69
2022/09/22 00:57:51;;;;;;;2.17;1.57;;;;;;;11.56;nan;-24139.75;5036902;28;20209;-66
2022/09/22 01:00:17;;;;;;;2.60;1.97;;;;;;;11.41;nan;-24135.66;5037990;28;20591;-69
2022/09/22 01:02:49;;;;;;;1.60;1.50;;;;;;;11.25;nan;-24131.16;5038000;28;20226;-67
2022/09/22 01:05:15;;;;;;;1.90;1.70;;;;;;;11.17;nan;-24128.91;5038308;28;20628;-65
2022/09/22 01:07:41;;;;;;;1.87;1.67;;;;;;;11.12;nan;-24127.63;5038072;28;20294;-69
2022/09/22 01:10:07;;;;;;;1.87;1.70;;;;;;;11.62;nan;-24141.44;5038551;28;20171;-69
2022/09/22 01:12:34;;;;;;;2.87;2.10;;;;;;;11.27;nan;-24131.88;5038307;28;20262;-68
2022/09/22 01:15:12;;;;;;;1.67;1.57;;;;;;;11.59;nan;-24140.75;5038412;28;20167;-66
2022/09/22 01:18:05;;;;;;;2.23;1.93;;;;;;;11.56;nan;-24139.75;5039036;28;20634;-67
2022/09/22 01:21:01;;;;;;;2.30;1.80;;;;;;;11.57;nan;-24140.19;5038365;28;20569;-69
2022/09/22 01:23:40;;;;;;;1.80;1.70;;;;;;;11.58;nan;-24140.31;5036231;28;20202;-67
2022/09/22 01:26:26;;;;;;;2.57;2.30;;;;;;;11.65;nan;-24142.28;5039420;28;20175;-67
2022/09/22 01:29:10;;;;;;;2.10;1.90;;;;;;;11.51;nan;-24138.63;5038591;28;20232;-68
2022/09/22 01:31:43;;;;;;;1.97;1.77;;;;;;;11.27;nan;-24131.88;5038943;28;20183;-68
2022/09/22 01:34:33;;;;;;;2.23;1.87;;;;;;;11.27;nan;-24131.72;5038403;28;20191;-67
2022/09/22 01:37:12;;;;;;;2.33;2.03;;;;;;;11.31;nan;-24133.00;5038206;28;20176;-71
2022/09/22 01:39:47;;;;;;;2.67;1.87;;;;;;;11.32;nan;-24133.28;5038721;28;20543;-68
2022/09/22 01:42:20;;;;;;;2.83;2.13;;;;;;;11.23;nan;-24130.59;5037208;28;20174;-68
2022/09/22 01:44:55;;;;;;;1.80;1.70;;;;;;;10.92;nan;-24122.00;5038565;28;20636;-68
2022/09/22 01:47:22;;;;;;;3.87;1.77;;;;;;;11.14;nan;-24128.19;5038932;28;20261;-68
2022/09/22 01:49:55;;;;;;;1.70;1.53;;;;;;;10.82;nan;-24119.31;5038018;28;20629;-69
2022/09/22 01:52:27;;;;;;;2.53;1.80;;;;;;;10.97;nan;-24123.41;5038465;28;20207;-70
2022/09/22 01:55:20;;;;;;;2.17;1.97;;;;;;;11.09;nan;-24126.78;5037253;28;20176;-68
2022/09/22 01:57:55;;;;;;;2.27;2.07;;;;;;;10.89;nan;-24121.28;5035933;28;20262;-69
2022/09/22 02:00:22;;;;;;;2.17;1.60;;;;;;;11.00;nan;-24124.25;5034392;28;20270;-69
2022/09/22 02:02:50;;;;;;;2.40;1.43;;;;;;;10.92;nan;-24122.00;5034858;28;20321;-69
2022/09/22 02:05:24;;;;;;;1.87;1.77;;;;;;;10.97;nan;-24123.53;5035618;28;20193;-68
2022/09/22 02:07:53;;;;;;;1.47;1.30;;;;;;;10.78;nan;-24118.03;5039398;28;20225;-70
2022/09/22 02:10:25;;;;;;;1.97;1.60;;;;;;;10.58;nan;-24112.69;5036679;28;20280;-68
2022/09/22 02:12:51;;;;;;;2.07;1.87;;;;;;;10.96;nan;-24123.25;5035032;28;20261;-68
2022/09/22 02:18:08;;;;;;;2.40;1.93;;;;;;;10.81;nan;-24119.03;5035017;28;20194;-68
2022/09/22 02:20:33;;;;;;;2.30;1.90;;;;;;;10.83;nan;-24119.47;5035058;28;20184;-70
2022/09/22 02:22:59;;;;;;;2.67;1.87;;;;;;;10.49;nan;-24110.16;5034293;28;20172;-67
2022/09/22 02:25:25;;;;;;;2.10;1.77;;;;;;;10.80;nan;-24118.75;5034337;28;20171;-67
2022/09/22 02:27:54;;;;;;;1.90;1.70;;;;;;;10.78;nan;-24118.03;5034608;28;20626;-67
2022/09/22 02:30:21;;;;;;;1.63;1.53;;;;;;;10.79;nan;-24118.47;5034644;28;20175;-68
2022/09/22 02:32:49;;;;;;;2.10;1.90;;;;;;;10.57;nan;-24112.41;5034435;28;20229;-67
2022/09/22 02:35:14;;;;;;;1.70;1.60;;;;;;;10.50;nan;-24110.44;5034013;28;20783;-69
2022/09/22 02:37:57;;;;;;;1.50;1.40;;;;;;;10.77;nan;-24117.78;5034010;28;20175;-68
2022/09/22 02:40:52;;;;;;;1.63;1.40;;;;;;;10.84;nan;-24119.75;5034136;28;20171;-68
2022/09/22 02:43:36;;;;;;;1.83;1.70;;;;;;;10.66;nan;-24114.66;5033935;28;20258;-68
2022/09/22 02:46:25;;;;;;;2.40;1.67;;;;;;;10.65;nan;-24114.53;5034020;28;20168;-69
2022/09/22 02:49:04;;;;;;;2.13;1.63;;;;;;;10.64;nan;-24114.25;5030793;28;20215;-68
2022/09/22 02:51:31;;;;;;;2.20;1.77;;;;;;;10.40;nan;-24107.63;5034483;28;20178;-68
2022/09/22 02:53:57;;;;;;;1.63;1.53;;;;;;;10.63;nan;-24114.09;5032185;28;20183;-69
2022/09/22 02:56:22;;;;;;;2.00;1.70;;;;;;;10.46;nan;-24109.31;5041830;28;20189;-71
2022/09/22 02:58:48;;;;;;;1.63;1.53;;;;;;;10.57;nan;-24112.41;5031330;28;20657;-70
2022/09/22 03:01:13;;;;;;;2.80;1.90;;;;;;;10.39;nan;-24107.19;5014116;28;20207;-68
2022/09/22 03:03:39;;;;;;;2.10;1.90;;;;;;;10.32;nan;-24105.22;5020782;28;20219;-69
2022/09/22 03:06:04;;;;;;;2.07;1.70;;;;;;;10.51;nan;-24110.72;5033255;28;20175;-69
2022/09/22 03:08:30;;;;;;;3.07;1.77;;;;;;;10.92;nan;-24122.13;5015161;28;20207;-68
2022/09/22 03:10:55;;;;;;;2.13;1.93;;;;;;;10.66;nan;-24114.81;5033633;28;20163;-69
2022/09/22 03:13:21;;;;;;;2.50;1.97;;;;;;;10.86;nan;-24120.44;5033072;28;20160;-71
2022/09/22 03:15:46;;;;;;;2.50;1.97;;;;;;;10.75;nan;-24117.19;5033381;28;20175;-70
2022/09/22 03:18:13;;;;;;;3.23;1.90;;;;;;;10.66;nan;-24114.66;5033605;28;20224;-71
2022/09/22 03:20:38;;;;;;;3.17;2.27;;;;;;;10.94;nan;-24122.69;5033277;28;20180;-71
2022/09/22 03:23:04;;;;;;;2.53;2.07;;;;;;;10.97;nan;-24123.41;5033403;28;20172;-71
2022/09/22 03:25:29;;;;;;;2.70;1.90;;;;;;;10.95;nan;-24122.84;5032699;28;20607;-67
2022/09/22 03:27:55;;;;;;;2.30;2.00;;;;;;;10.95;nan;-24122.84;5033158;28;20686;-68
2022/09/22 03:30:20;;;;;;;3.37;2.10;;;;;;;10.54;nan;-24111.56;5033494;28;20262;-71
2022/09/22 03:32:45;;;;;;;3.47;2.27;;;;;;;10.52;nan;-24110.84;5039822;28;20672;-68
2022/09/22 03:35:11;;;;;;;2.40;2.20;;;;;;;10.82;nan;-24119.19;5032011;28;20175;-69
2022/09/22 03:37:36;;;;;;;3.03;2.07;;;;;;;10.80;nan;-24118.63;5012968;28;20168;-69
2022/09/22 03:40:03;;;;;;;3.63;2.23;;;;;;;10.70;nan;-24115.94;5020256;28;20614;-66
2022/09/22 03:42:29;;;;;;;2.20;2.00;;;;;;;10.49;nan;-24110.00;5033251;28;20180;-68
2022/09/22 03:44:54;;;;;;;3.47;2.43;;;;;;;10.66;nan;-24114.81;5031630;28;20642;-69
2022/09/22 03:47:19;;;;;;;2.03;1.67;;;;;;;10.56;nan;-24111.97;5033092;28;20172;-68
2022/09/22 03:49:45;;;;;;;2.83;1.80;;;;;;;10.74;nan;-24117.06;5031284;28;20257;-68
2022/09/22 03:52:10;;;;;;;3.07;2.13;;;;;;;10.64;nan;-24114.38;5032065;28;20190;-70
2022/09/22 03:54:36;;;;;;;2.87;2.37;;;;;;;10.41;nan;-24107.75;5032816;28;20204;-68
2022/09/22 03:57:02;;;;;;;4.67;2.40;;;;;;;10.44;nan;-24108.59;5032477;28;20175;-68
2022/09/22 03:59:28;;;;;;;3.80;2.20;;;;;;;10.49;nan;-24110.16;5032234;28;20645;-67
2022/09/22 04:01:53;;;;;;;3.67;2.30;;;;;;;10.49;nan;-24110.16;5032202;28;20258;-68
2022/09/22 04:04:19;;;;;;;2.63;2.00;;;;;;;10.56;nan;-24112.13;5032358;28;20166;-67
2022/09/22 04:06:44;;;;;;;2.57;2.30;;;;;;;10.42;nan;-24108.16;5032443;28;20199;-72
2022/09/22 04:09:10;;;;;;;2.93;2.20;;;;;;;10.75;nan;-24117.19;5030841;28;20211;-68
2022/09/22 04:11:36;;;;;;;2.83;1.80;;;;;;;10.50;nan;-24110.44;5030483;28;20554;-69
2022/09/22 04:14:03;;;;;;;3.13;2.50;;;;;;;10.68;nan;-24115.22;5032216;28;20175;-69
2022/09/22 04:16:30;;;;;;;2.20;1.87;;;;;;;10.30;nan;-24104.78;5032612;28;20233;-71
2022/09/22 04:18:55;;;;;;;2.33;2.10;;;;;;;10.67;nan;-24115.09;5039916;28;20220;-70
2022/09/22 04:21:21;;;;;;;3.50;2.53;;;;;;;10.71;nan;-24116.06;5032494;28;20178;-67
2022/09/22 04:23:46;;;;;;;3.17;1.83;;;;;;;10.68;nan;-24115.22;5031968;28;20167;-70
2022/09/22 04:26:11;;;;;;;4.90;2.30;;;;;;;10.72;nan;-24116.50;5031792;28;20247;-69
2022/09/22 04:28:37;;;;;;;3.03;2.00;;;;;;;10.80;nan;-24118.75;5031646;28;20199;-68
2022/09/22 04:31:02;;;;;;;4.20;2.27;;;;;;;10.46;nan;-24109.31;5031579;28;20168;-67
2022/09/22 04:33:28;;;;;;;3.40;2.30;;;;;;;10.82;nan;-24119.31;5030228;28;20262;-69
2022/09/22 04:35:53;;;;;;;2.93;2.10;;;;;;;10.40;nan;-24107.47;5031670;28;20210;-70
2022/09/22 04:38:19;;;;;;;2.50;1.80;;;;;;;10.69;nan;-24115.66;5029595;28;20171;-69
2022/09/22 04:40:45;;;;;;;3.10;2.17;;;;;;;10.54;nan;-24111.56;5031402;28;20180;-68
2022/09/22 04:43:11;;;;;;;3.60;2.20;;;;;;;10.65;nan;-24114.53;5031670;28;20229;-69
2022/09/22 04:45:36;;;;;;;3.17;2.23;;;;;;;10.94;nan;-24122.56;5030395;28;20182;-68
2022/09/22 04:48:02;;;;;;;3.17;2.00;;;;;;;11.01;nan;-24124.69;5030462;28;20256;-67
2022/09/22 04:50:27;;;;;;;18.73;2.77;;;;;;;11.17;nan;-24129.03;5031668;28;20626;-66
2022/09/22 04:52:55;;;;;;;3.00;2.57;;;;;;;11.22;nan;-24130.47;5032233;28;20244;-65
2022/09/22 04:55:22;;;;;;;3.17;2.30;;;;;;;11.25;nan;-24131.31;5031472;28;20178;-70
2022/09/22 04:57:51;;;;;;;2.13;1.90;;;;;;;11.11;nan;-24127.22;5030519;28;20262;-67
2022/09/22 05:00:18;;;;;;;2.50;2.00;;;;;;;11.58;nan;-24140.31;5031645;28;20178;-66
2022/09/22 05:02:44;;;;;;;3.70;2.30;;;;;;;11.53;nan;-24139.19;5030344;28;20729;-64
2022/09/22 05:05:10;;;;;;;3.43;2.10;;;;;;;11.50;nan;-24138.22;5005708;28;20264;-69
2022/09/22 05:07:40;;;;;;;3.47;2.40;;;;;;;11.47;nan;-24137.34;5026173;28;20567;-66
2022/09/22 05:10:06;;;;;;;3.47;2.20;;;;;;;11.60;nan;-24140.88;5024827;28;20178;-68
2022/09/22 05:12:34;;;;;;;2.40;2.20;;;;;;;11.86;nan;-24148.22;5025338;28;20613;-71
2022/09/22 05:15:00;;;;;;;2.50;2.10;;;;;;;11.58;nan;-24140.31;5023787;28;20183;-67
2022/09/22 05:17:26;;;;;;;3.28;2.45;;;;;;;11.89;nan;-24149.19;5024063;28;20638;-72
2022/09/22 05:19:54;;;;;;;2.80;2.50;;;;;;;12.13;nan;-24155.81;5007877;28;20198;-67
2022/09/22 05:22:21;;;;;;;3.43;2.23;;;;;;;12.13;nan;-24155.81;5023638;28;20570;-72
2022/09/22 05:24:47;;;;;;;3.03;2.17;;;;;;;12.03;nan;-24153.00;5024106;28;20623;-69
2022/09/22 05:27:13;;;;;;;2.70;2.25;;;;;;;12.19;nan;-24157.50;5023549;28;20555;-70
2022/09/22 05:29:39;;;;;;;2.85;2.20;;;;;;;11.98;nan;-24151.59;5025696;28;20203;-70
2022/09/22 05:32:05;;;;;;;2.70;2.22;;;;;;;12.26;nan;-24159.34;5028013;28;20192;-70
2022/09/22 05:34:30;;;;;;;3.30;2.20;;;;;;;12.29;nan;-24160.19;5028274;28;20183;-68
2022/09/22 05:36:56;;;;;;;3.15;2.15;;;;;;;12.54;nan;-24167.22;5010471;28;20195;-69
2022/09/22 05:39:21;;;;;;;2.50;2.08;;;;;;;12.40;nan;-24163.28;5027721;28;20656;-70
2022/09/22 05:41:48;;;;;;;2.28;2.03;;;;;;;12.31;nan;-24160.88;5029982;28;20179;-70
2022/09/22 05:44:14;;;;;;;3.33;2.30;;;;;;;12.57;nan;-24167.91;5029445;28;20191;-67
2022/09/22 05:46:40;;;;;;;2.17;1.88;;;;;;;11.89;nan;-24149.19;5028325;28;20208;-67
2022/09/22 05:49:05;;;;;;;2.15;1.90;;;;;;;12.36;nan;-24162.28;5027187;28;20281;-70
2022/09/22 05:51:31;;;;;;;3.70;1.85;;;;;;;12.44;nan;-24164.25;5027827;28;20187;-68
2022/09/22 05:53:57;;;;;;;2.75;2.03;;;;;;;12.76;nan;-24173.25;5027441;28;20176;-72
2022/09/22 05:56:22;;;;;;;3.35;2.17;;;;;;;12.65;nan;-24170.31;5026906;28;20523;-68
2022/09/22 05:58:48;;;;;;;2.25;2.00;;;;;;;12.95;nan;-24178.59;5028010;28;20183;-69
2022/09/22 06:01:13;;;;;;;2.70;1.98;;;;;;;12.77;nan;-24173.53;5029123;28;20183;-69
2022/09/22 06:03:39;;;;;;;3.80;2.33;;;;;;;13.18;nan;-24184.94;5026941;28;20223;-67
2022/09/22 06:06:05;;;;;;;2.50;1.80;;;;;;;13.05;nan;-24181.41;5027714;28;20195;-67
2022/09/22 06:08:31;;;;;;;2.10;1.90;;;;;;;13.26;nan;-24187.31;5027951;28;20210;-68
2022/09/22 06:10:57;;;;;;;3.33;2.10;;;;;;;13.33;nan;-24189.16;5027297;28;20607;-68
2022/09/22 06:13:23;;;;;;;3.10;2.40;;;;;;;13.23;nan;-24186.34;5027486;28;20171;-69
2022/09/22 06:15:48;;;;;;;2.78;1.88;;;;;;;13.21;nan;-24185.78;5027685;28;20180;-67
2022/09/22 06:18:16;;;;;;;2.80;2.38;;;;;;;13.19;nan;-24185.34;5028553;28;20281;-67
2022/09/22 06:20:43;;;;;;;3.22;2.20;;;;;;;13.10;nan;-24182.81;5026759;28;20187;-68
2022/09/22 06:23:11;;;;;;;1.90;1.70;;;;;;;13.15;nan;-24184.09;5027900;28;20214;-68
2022/09/22 06:25:37;;;;;;;2.22;1.77;;;;;;;13.48;nan;-24193.34;5026889;28;20264;-67
2022/09/22 06:28:08;;;;;;;2.05;1.80;;;;;;;13.47;nan;-24193.06;5033439;28;20274;-67
2022/09/22 06:30:35;;;;;;;2.83;2.13;;;;;;;13.62;nan;-24197.16;5027408;28;20183;-68
2022/09/22 06:33:01;;;;;;;3.67;1.92;;;;;;;13.71;nan;-24199.81;5026946;28;20194;-66
2022/09/22 06:35:35;;;;;;;3.13;2.13;;;;;;;13.45;nan;-24192.38;5026992;28;20175;-66
2022/09/22 06:38:00;;;;;;;4.40;2.47;;;;;;;13.81;nan;-24202.34;5026177;28;20598;-68
2022/09/22 06:40:26;;;;;;;3.00;2.63;;;;;;;13.70;nan;-24199.41;5026968;28;20625;-65
2022/09/22 06:43:00;;;;;;;2.13;1.90;;;;;;;13.72;nan;-24199.97;5035557;28;20655;-68
2022/09/22 06:45:26;;;;;;;3.03;2.30;;;;;;;13.49;nan;-24193.63;5031813;28;20228;-68
2022/09/22 06:47:57;;;;;;;3.70;2.20;;;;;;;13.91;nan;-24205.28;5039004;28;20732;-70
2022/09/22 06:50:23;;;;;;;3.25;2.05;;;;;;;13.94;nan;-24206.13;5040162;28;20232;-66
2022/09/22 06:52:50;;;;;;;2.35;1.80;;;;;;;14.02;nan;-24208.25;5017708;28;20357;-69
2022/09/22 06:55:19;;;;;;;2.70;1.80;;;;;;;14.06;nan;-24209.50;5013655;28;20189;-68
2022/09/22 06:57:45;;;;;;;3.40;2.10;;;;;;;14.39;nan;-24218.47;5033191;28;20753;-69
2022/09/22 07:00:14;;;;;;;2.75;2.20;;;;;;;14.26;nan;-24214.84;5031651;28;20258;-66
2022/09/22 07:02:40;;;;;;;2.50;2.00;;;;;;;14.52;nan;-24222.13;5032849;28;20242;-68
2022/09/22 07:05:05;;;;;;;2.60;2.20;;;;;;;14.38;nan;-24218.22;5031862;28;20642;-66
2022/09/22 07:07:31;;;;;;;2.53;1.90;;;;;;;14.40;nan;-24218.75;5013337;28;20187;-69
2022/09/22 07:09:57;;;;;;;2.70;1.75;;;;;;;14.58;nan;-24223.94;5023256;28;20193;-69
2022/09/22 07:12:24;;;;;;;3.45;1.90;;;;;;;15.10;nan;-24238.09;5026364;28;20199;-68
2022/09/22 07:14:51;;;;;;;2.50;1.90;;;;;;;15.10;nan;-24238.09;5036460;28;20712;-67
2022/09/22 07:17:20;;;;;;;2.35;1.95;;;;;;;14.96;nan;-24234.31;5041311;28;20197;-68
2022/09/22 07:19:50;;;;;;;2.15;1.90;;;;;;;15.37;nan;-24245.66;5021049;28;20188;-67
2022/09/22 07:22:17;;;;;;;2.10;1.90;;;;;;;15.22;nan;-24241.47;5012916;28;20172;-68
2022/09/22 07:24:43;;;;;;;2.35;1.88;;;;;;;15.38;nan;-24245.94;5029968;28;20956;-69
2022/09/22 07:27:09;;;;;;;2.00;1.60;;;;;;;15.32;nan;-24244.28;5032500;28;20182;-69
2022/09/22 07:29:38;;;;;;;2.25;1.67;;;;;;;15.69;nan;-24254.50;5032045;28;20650;-69
2022/09/22 07:32:04;;;;;;;1.75;1.60;;;;;;;15.60;nan;-24251.97;5032239;28;20293;-67
2022/09/22 07:34:30;;;;;;;2.05;1.67;;;;;;;15.33;nan;-24244.56;5032165;28;20666;-68
2022/09/22 07:36:56;;;;;;;2.78;1.90;;;;;;;15.42;nan;-24247.06;5032123;28;20262;-66
2022/09/22 07:39:23;;;;;;;1.55;1.42;;;;;;;15.86;nan;-24259.38;5031984;28;20635;-67
2022/09/22 07:41:49;;;;;;;2.38;1.98;;;;;;;15.88;nan;-24259.81;5032366;28;20183;-69
2022/09/22 07:47:00;;;;;;;2.35;1.75;;;;;;;15.84;nan;-24258.84;5032148;28;20167;-68
2022/09/22 07:49:26;;;;;;;1.95;1.42;;;;;;;15.92;nan;-24260.94;5032045;28;20725;-69
2022/09/22 07:51:56;;;;;;;2.42;1.80;;;;;;;15.91;nan;-24260.66;5032286;28;20175;-67
2022/09/22 07:54:22;;;;;;;2.58;1.60;;;;;;;16.16;nan;-24267.66;5031164;28;20187;-67
2022/09/22 07:56:48;;;;;;;1.98;1.77;;;;;;;15.91;nan;-24260.78;5031911;28;20241;-68
2022/09/22 07:59:15;;;;;;;2.50;1.80;;;;;;;16.27;nan;-24270.59;5031861;28;20225;-66
2022/09/22 08:01:43;;;;;;;6.80;2.05;;;;;;;16.12;nan;-24266.38;5031760;28;20164;-68
2022/09/22 08:04:15;;;;;;;2.40;1.92;;;;;;;16.39;nan;-24273.94;5031663;28;20285;-69
2022/09/22 08:06:42;;;;;;;2.05;1.67;;;;;;;16.25;nan;-24270.03;5031921;28;20176;-68
2022/09/22 08:09:09;;;;;;;2.50;1.77;;;;;;;16.50;nan;-24277.00;5031368;28;20207;-69
2022/09/22 08:11:35;;;;;;;2.00;1.58;;;;;;;16.37;nan;-24273.25;5031364;28;20183;-66
2022/09/22 08:14:03;;;;;;;1.70;1.60;;;;;;;16.77;nan;-24284.56;5030737;28;20167;-66
2022/09/22 08:16:34;;;;;;;1.63;1.50;;;;;;;16.84;nan;-24286.22;5031562;28;20182;-67
2022/09/22 08:19:09;;;;;;;2.83;1.92;;;;;;;16.96;nan;-24289.59;5029622;28;20226;-68
2022/09/22 08:21:35;;;;;;;2.05;1.80;;;;;;;16.96;nan;-24289.72;5031530;28;20186;-67
2022/09/22 08:24:06;;;;;;;1.80;1.65;;;;;;;16.78;nan;-24284.84;5031346;28;20289;-70
2022/09/22 08:26:31;;;;;;;2.08;1.70;;;;;;;16.94;nan;-24289.03;5030861;28;20252;-66
2022/09/22 08:28:57;;;;;;;1.60;1.50;;;;;;;17.23;nan;-24297.13;5030972;28;20667;-68
2022/09/22 08:31:24;;;;;;;1.70;1.50;;;;;;;16.84;nan;-24286.38;5031151;28;20500;-65
2022/09/22 08:33:51;;;;;;;2.20;1.67;;;;;;;17.22;nan;-24296.84;5031637;28;20179;-70
2022/09/22 08:36:17;;;;;;;2.63;1.63;;;;;;;17.37;nan;-24301.03;5033531;28;20179;-66
2022/09/22 08:38:47;;;;;;;3.47;1.80;;;;;;;17.36;nan;-24300.63;5030687;28;20175;-68
2022/09/22 08:41:18;;;;;;;2.58;1.77;;;;;;;17.47;nan;-24303.81;5030907;28;20170;-68
2022/09/22 08:43:54;;;;;;;1.67;1.55;;;;;;;17.42;nan;-24302.44;5030927;28;20194;-69
2022/09/22 08:46:25;;;;;;;2.35;1.80;;;;;;;17.71;nan;-24310.38;5031146;28;20167;-62
2022/09/22 08:51:50;;;;;;;1.60;1.50;;;;;;;18.40;nan;-24329.47;5039364;28;20198;-62
2022/09/22 08:54:17;;;;;;;3.90;1.73;;;;;;;18.20;nan;-24323.78;5024292;28;20255;-64
2022/09/22 08:57:01;;;;;;;4.32;1.70;;;;;;;18.40;nan;-24329.47;5011846;28;20176;-64
2022/09/22 08:59:35;;;;;;;2.55;1.60;;;;;;;18.25;nan;-24325.31;5026564;28;20187;-60
2022/09/22 09:02:06;;;;;;;2.45;1.60;;;;;;;18.65;nan;-24336.19;5031300;28;20175;-63
2022/09/22 09:05:01;;;;;;;1.73;1.50;;;;;;;18.63;nan;-24335.63;5031908;28;20259;-63
2022/09/22 09:07:58;;;;;;;2.25;1.63;;;;;;;18.80;nan;-24340.34;5035354;28;20615;-63
2022/09/22 09:10:46;;;;;;;1.77;1.60;;;;;;;18.89;nan;-24342.84;5035240;28;20174;-63
2022/09/22 09:13:27;;;;;;;1.30;1.20;;;;;;;18.98;nan;-24345.38;5035067;28;20195;-63
2022/09/22 09:16:05;;;;;;;1.60;1.40;;;;;;;19.00;nan;-24345.78;5035790;28;20167;-65
2022/09/22 09:18:35;;;;;;;1.75;1.20;;;;;;;18.92;nan;-24343.69;5034902;28;20175;-62
2022/09/22 09:21:05;;;;;;;1.90;1.70;;;;;;;18.98;nan;-24345.50;5035036;28;20155;-63
2022/09/22 09:23:38;;;;;;;1.67;1.48;;;;;;;19.31;nan;-24354.41;5035112;28;20233;-63
2022/09/22 09:26:04;;;;;;;1.52;1.33;;;;;;;19.12;nan;-24349.25;5034789;28;20160;-63
2022/09/22 09:28:36;;;;;;;1.60;1.30;;;;;;;19.40;nan;-24357.06;5034351;28;20625;-65
2022/09/22 09:31:11;;;;;;;1.98;1.50;;;;;;;19.25;nan;-24352.88;5034720;28;20237;-63
2022/09/22 09:34:04;;;;;;;1.63;1.25;;;;;;;19.61;nan;-24362.63;5034575;28;20159;-64
2022/09/22 09:36:36;;;;;;;2.17;1.52;;;;;;;19.63;nan;-24363.16;5034491;28;20645;-63
2022/09/22 09:39:12;;;;;;;1.88;1.38;;;;;;;19.14;nan;-24349.81;5034877;28;20176;-63
2022/09/22 09:41:39;;;;;;;1.70;1.23;;;;;;;19.14;nan;-24349.81;5034925;28;20167;-63
2022/09/22 09:44:05;;;;;;;1.55;1.30;;;;;;;19.29;nan;-24353.84;5034635;28;20248;-63
2022/09/22 09:47:16;;;;;;;1.38;1.27;;;;;;;20.17;nan;-24378.03;5034673;28;20250;-62
2022/09/22 09:49:42;;;;;;;1.85;1.40;;;;;;;19.73;nan;-24365.94;5024530;28;20215;-62
2022/09/22 09:52:11;;;;;;;1.27;1.17;;;;;;;19.91;nan;-24370.81;5034600;28;20163;-62
2022/09/22 09:54:37;;;;;;;1.50;1.40;;;;;;;19.85;nan;-24369.44;5034133;28;20178;-61
2022/09/22 09:57:07;;;;;;;1.75;1.27;;;;;;;20.18;nan;-24378.31;5034410;28;20619;-62
2022/09/22 10:02:27;;;;;;;1.95;1.38;;;;;;;20.15;nan;-24377.47;5034861;28;20234;-62
2022/09/22 10:05:26;;;;;;;2.13;1.40;;;;;;;20.03;nan;-24374.28;5034852;28;20206;-62
2022/09/22 10:08:01;;;;;;;1.40;1.23;;;;;;;19.55;nan;-24361.09;5021607;28;20682;-63
2022/09/22 10:10:36;;;;;;;2.92;1.40;;;;;;;20.09;nan;-24375.81;5035168;28;20178;-64
2022/09/22 10:13:04;;;;;;;1.33;1.00;;;;;;;20.00;nan;-24373.47;5035051;28;20187;-63
2022/09/22 10:15:40;;;;;;;1.10;1.00;;;;;;;20.08;nan;-24375.69;5034449;28;20197;-63
2022/09/22 10:18:33;;;;;;;1.10;1.00;;;;;;;20.21;nan;-24379.28;5033495;28;20163;-63
2022/09/22 10:21:18;;;;;;;1.42;1.08;;;;;;;20.48;nan;-24386.53;5034621;28;20254;-63
2022/09/22 10:23:49;;;;;;;1.58;1.33;;;;;;;19.90;nan;-24370.69;5035038;28;20185;-64
2022/09/22 10:26:20;;;;;;;1.95;1.50;;;;;;;20.35;nan;-24383.03;5034328;28;20162;-62
2022/09/22 10:29:11;;;;;;;3.00;1.30;;;;;;;20.39;nan;-24384.16;5033385;28;20242;-62
2022/09/22 10:31:37;;;;;;;2.05;1.40;;;;;;;20.39;nan;-24384.16;5034004;28;20252;-63
2022/09/22 10:34:04;;;;;;;0.90;0.90;;;;;;;19.94;nan;-24371.78;5033945;28;20171;-66
2022/09/22 10:36:32;;;;;;;1.20;1.10;;;;;;;20.19;nan;-24378.59;5033973;28;20183;-65
2022/09/22 10:38:57;;;;;;;1.35;1.15;;;;;;;20.51;nan;-24387.50;5034025;28;20266;-64
2022/09/22 10:41:26;;;;;;;1.20;1.10;;;;;;;20.51;nan;-24387.34;5032550;28;20258;-63
2022/09/22 10:43:59;;;;;;;1.27;1.13;;;;;;;20.67;nan;-24391.94;5033862;28;20183;-63
2022/09/22 10:46:49;;;;;;;1.10;1.00;;;;;;;20.98;nan;-24400.38;5033691;28;20167;-63
2022/09/22 10:49:30;;;;;;;1.30;1.20;;;;;;;20.92;nan;-24398.59;5033504;28;20218;-63
2022/09/22 10:51:58;;;;;;;1.45;1.20;;;;;;;21.20;nan;-24406.22;5033874;28;20238;-64
2022/09/22 10:54:40;;;;;;;1.45;1.35;;;;;;;21.40;nan;-24411.91;5033662;28;20175;-62
2022/09/22 10:57:22;;;;;;;1.52;1.20;;;;;;;21.43;nan;-24412.72;5033783;28;20221;-62
2022/09/22 11:00:16;;;;;;;1.13;1.02;;;;;;;22.00;nan;-24428.38;5033409;28;20610;-64
2022/09/22 11:03:00;;;;;;;1.20;1.10;;;;;;;21.87;nan;-24424.78;5033356;28;20231;-63
2022/09/22 11:14:11;;;;;;;1.88;1.23;;;;;;;22.18;nan;-24433.22;5033414;28;20192;-65
2022/09/22 11:16:36;;;;;;;3.45;1.30;;;;;;;21.90;nan;-24425.63;5033131;28;20167;-63
2022/09/22 11:19:20;;;;;;;1.73;1.40;;;;;;;21.46;nan;-24413.44;5033515;28;20330;-62
2022/09/22 11:22:04;;;;;;;1.30;1.20;;;;;;;21.04;nan;-24402.06;5037894;28;20178;-63
2022/09/22 11:24:48;;;;;;;1.25;1.00;;;;;;;21.04;nan;-24402.06;5050709;28;20177;-62
2022/09/22 11:28:00;;;;;;;1.50;1.40;;;;;;;20.59;nan;-24389.56;5050282;28;20167;-62
2022/09/22 11:30:37;;;;;;;1.75;1.65;;;;;;;20.35;nan;-24383.03;5007600;28;20318;-63
2022/09/22 11:33:33;;;;;;;2.17;1.35;;;;;;;20.33;nan;-24382.50;5047453;28;20213;-62
2022/09/22 11:36:10;;;;;;;1.20;1.10;;;;;;;20.45;nan;-24385.81;5050115;28;20159;-62
2022/09/22 11:38:59;;;;;;;1.58;1.23;;;;;;;20.53;nan;-24387.91;5049606;28;20170;-65
2022/09/22 11:41:34;;;;;;;1.20;1.10;;;;;;;20.60;nan;-24389.84;5052103;28;20630;-63
2022/09/22 11:44:07;;;;;;;2.10;1.17;;;;;;;20.56;nan;-24388.75;5052819;28;20170;-63
2022/09/22 11:47:04;;;;;;;1.55;1.20;;;;;;;20.63;nan;-24390.69;5052279;28;20159;-62
2022/09/22 11:49:51;;;;;;;1.27;1.15;;;;;;;20.67;nan;-24391.78;5052497;28;20665;-65
2022/09/22 11:52:20;;;;;;;1.40;1.30;;;;;;;20.50;nan;-24387.22;5052469;28;20574;-64
2022/09/22 11:55:01;;;;;;;0.98;0.95;;;;;;;20.36;nan;-24383.19;5052676;28;20171;-64
2022/09/22 11:57:32;;;;;;;2.33;1.55;;;;;;;20.34;nan;-24382.63;5052607;28;20252;-62
2022/09/22 12:00:04;;;;;;;1.25;1.13;;;;;;;20.97;nan;-24400.13;5052123;28;20166;-63
2022/09/22 12:02:47;;;;;;;2.03;1.17;;;;;;;20.72;nan;-24393.31;5052272;28;20376;-63
2022/09/22 12:05:24;;;;;;;2.13;1.25;;;;;;;21.15;nan;-24405.09;5052202;28;20600;-63
2022/09/22 12:07:58;;;;;;;1.58;1.23;;;;;;;21.54;nan;-24415.78;5052442;28;20174;-63
2022/09/22 12:10:33;;;;;;;1.38;1.17;;;;;;;21.25;nan;-24407.59;5052131;28;20174;-63
2022/09/22 12:13:01;;;;;;;3.15;1.45;;;;;;;21.24;nan;-24407.31;5052400;28;20617;-64
2022/09/22 12:15:38;;;;;;;3.08;1.25;;;;;;;21.43;nan;-24412.72;5052072;28;20559;-64
2022/09/22 12:18:22;;;;;;;1.98;1.35;;;;;;;21.05;nan;-24402.19;5052245;28;20183;-64